createdAt,value
2023-07-03T00:02:01.454Z,100495.25
2023-07-03T00:04:29.394Z,100502.56
2023-07-03T00:06:56.770Z,100499.66
2023-07-03T00:09:24.146Z,100498.81
2023-07-03T00:11:51.466Z,100497.13
2023-07-03T00:14:18.807Z,100508.66
2023-07-03T00:16:46.149Z,100505.28
2023-07-03T00:19:16.866Z,100503.41
2023-07-03T00:21:44.509Z,100500.69
2023-07-03T00:24:12.873Z,100495.25
2023-07-03T00:26:41.167Z,100499.84
2023-07-03T00:29:08.422Z,100497.13
2023-07-03T00:31:36.223Z,100494.44
2023-07-03T00:34:03.558Z,100499.00
2023-07-03T00:36:30.812Z,100491.72
2023-07-03T00:38:59.668Z,100497.97
2023-07-03T00:41:27.340Z,100503.41
2023-07-03T00:43:54.624Z,100494.44
2023-07-03T00:46:22.000Z,100496.09
2023-07-03T00:48:49.938Z,100491.72
2023-07-03T00:51:19.507Z,100490.66
2023-07-03T00:53:46.854Z,100491.72
2023-07-03T00:56:14.245Z,100497.97
2023-07-03T00:58:41.595Z,100497.97
2023-07-03T01:01:29.883Z,100486.28
2023-07-03T01:04:06.217Z,100499.66
2023-07-03T01:06:41.483Z,100509.69
2023-07-03T01:09:12.625Z,100506.13
2023-07-03T01:11:40.886Z,100513.25
2023-07-03T01:14:10.697Z,100513.25
2023-07-03T01:16:39.195Z,100513.25
2023-07-03T01:19:14.122Z,100515.97
2023-07-03T01:21:56.829Z,100509.69
2023-07-03T01:24:35.317Z,100512.56
2023-07-03T01:27:06.312Z,100511.56
2023-07-03T01:29:35.620Z,100517.84
2023-07-03T01:32:06.801Z,100504.25
2023-07-03T01:34:35.122Z,100513.44
2023-07-03T01:37:04.694Z,100513.44
2023-07-03T01:39:32.544Z,100515.13
2023-07-03T01:42:00.571Z,100517.84
2023-07-03T01:44:28.289Z,100521.59
2023-07-03T01:46:55.598Z,100522.44
2023-07-03T01:49:23.054Z,100516.16
2023-07-03T01:52:01.338Z,100513.44
2023-07-03T01:54:37.087Z,100523.28
2023-07-03T01:57:05.894Z,100521.59
2023-07-03T01:59:35.015Z,100525.16
2023-07-03T02:02:16.765Z,100519.88
2023-07-03T02:05:08.758Z,100524.31
2023-07-03T02:07:38.762Z,100530.59
2023-07-03T02:10:06.758Z,100530.59
2023-07-03T02:12:34.214Z,100532.47
2023-07-03T02:15:05.325Z,100537.91
2023-07-03T02:17:32.879Z,100537.91
2023-07-03T02:20:00.177Z,100535.19
2023-07-03T02:22:27.626Z,100535.19
2023-07-03T02:24:54.943Z,100526.16
2023-07-03T02:27:23.046Z,100528.03
2023-07-03T02:29:50.900Z,100527.03
2023-07-03T02:32:18.242Z,100529.75
2023-07-03T02:34:45.569Z,100527.03
2023-07-03T02:37:15.067Z,100533.31
2023-07-03T02:39:42.516Z,100529.75
2023-07-03T02:42:09.884Z,100521.59
2023-07-03T02:44:38.210Z,100526.38
2023-07-03T02:47:06.256Z,100537.03
2023-07-03T02:49:34.781Z,100538.91
2023-07-03T02:52:05.884Z,100528.03
2023-07-03T02:54:34.967Z,100535.19
2023-07-03T02:57:03.390Z,100522.59
2023-07-03T02:59:31.041Z,100535.19
2023-07-03T03:01:59.324Z,100533.47
2023-07-03T03:04:28.843Z,100528.88
2023-07-03T03:06:56.398Z,100533.47
2023-07-03T03:09:24.575Z,100536.41
2023-07-03T03:11:53.190Z,100537.25
2023-07-03T03:14:20.622Z,100534.72
2023-07-03T03:16:47.986Z,100533.88
2023-07-03T03:19:15.360Z,100536.59
2023-07-03T03:21:43.007Z,100532.19
2023-07-03T03:24:10.463Z,100530.50
2023-07-03T03:26:37.835Z,100528.81
2023-07-03T03:29:05.261Z,100534.25
2023-07-03T03:31:32.566Z,100534.25
2023-07-03T03:34:04.569Z,100534.44
2023-07-03T03:36:34.318Z,100533.56
2023-07-03T03:39:02.252Z,100540.88
2023-07-03T03:41:30.439Z,100550.06
2023-07-03T03:43:58.461Z,100555.69
2023-07-03T03:46:26.181Z,100557.53
2023-07-03T03:48:54.010Z,100561.31
2023-07-03T03:51:22.800Z,100565.06
2023-07-03T03:53:50.568Z,100558.78
2023-07-03T03:56:17.987Z,100555.03
2023-07-03T03:58:45.331Z,100559.81
2023-07-03T04:01:12.798Z,100560.00
2023-07-03T04:03:40.284Z,100555.41
2023-07-03T04:06:09.234Z,100570.69
2023-07-03T04:08:37.082Z,100568.97
2023-07-03T04:11:04.406Z,100566.47
2023-07-03T04:13:31.789Z,100566.47
2023-07-03T04:16:02.672Z,100572.75
2023-07-03T04:18:32.658Z,100570.22
2023-07-03T04:21:00.632Z,100568.34
2023-07-03T04:23:28.808Z,100573.78
2023-07-03T04:25:56.494Z,100575.66
2023-07-03T04:28:24.353Z,100576.66
2023-07-03T04:30:51.661Z,100579.38
2023-07-03T04:33:19.075Z,100572.28
2023-07-03T04:35:48.120Z,100569.38
2023-07-03T04:38:19.728Z,100574.81
2023-07-03T04:40:47.123Z,100576.66
2023-07-03T04:43:17.160Z,100575.81
2023-07-03T04:45:51.413Z,100578.53
2023-07-03T04:48:20.074Z,100576.88
2023-07-03T04:50:50.477Z,100576.03
2023-07-03T04:53:22.551Z,100582.31
2023-07-03T04:55:51.258Z,100586.06
2023-07-03T04:58:18.940Z,100589.41
2023-07-03T05:00:48.207Z,100587.72
2023-07-03T05:03:15.723Z,100586.69
2023-07-03T05:05:43.669Z,100595.50
2023-07-03T05:08:11.345Z,100584.81
2023-07-03T05:10:38.662Z,100592.97
2023-07-03T05:13:05.977Z,100586.69
2023-07-03T05:15:33.418Z,100590.09
2023-07-03T05:18:00.955Z,100596.56
2023-07-03T05:20:30.019Z,100595.50
2023-07-03T05:22:57.576Z,100586.53
2023-07-03T05:25:25.105Z,100597.19
2023-07-03T05:27:52.362Z,100588.22
2023-07-03T05:30:19.865Z,100593.63
2023-07-03T05:32:47.812Z,100596.34
2023-07-03T05:35:15.350Z,100599.06
2023-07-03T05:37:42.774Z,100601.78
2023-07-03T05:40:10.936Z,100590.91
2023-07-03T05:42:38.394Z,100590.91
2023-07-03T05:45:06.385Z,100591.75
2023-07-03T05:47:35.455Z,100600.94
2023-07-03T05:50:04.246Z,100601.78
2023-07-03T05:52:32.395Z,100606.38
2023-07-03T05:54:59.823Z,100604.50
2023-07-03T05:57:27.091Z,100605.34
2023-07-03T05:59:55.874Z,100601.78
2023-07-03T06:02:23.266Z,100607.03
2023-07-03T06:04:50.730Z,100614.34
2023-07-03T06:07:18.356Z,100611.63
2023-07-03T06:09:46.911Z,100620.59
2023-07-03T06:12:14.245Z,100609.75
2023-07-03T06:14:41.636Z,100610.56
2023-07-03T06:17:09.012Z,100611.44
2023-07-03T06:19:36.401Z,100617.72
2023-07-03T06:22:03.824Z,100615.84
2023-07-03T06:24:31.109Z,100621.91
2023-07-03T06:26:59.072Z,100624.63
2023-07-03T06:29:26.358Z,100624.63
2023-07-03T06:31:53.814Z,100630.06
2023-07-03T06:34:21.188Z,100626.50
2023-07-03T06:36:48.435Z,100619.59
2023-07-03T06:39:16.195Z,100620.59
2023-07-03T06:41:43.737Z,100617.41
2023-07-03T06:44:17.820Z,100622.22
2023-07-03T06:46:45.596Z,100617.81
2023-07-03T06:49:13.938Z,100615.94
2023-07-03T06:51:41.728Z,100618.81
2023-07-03T06:54:09.295Z,100611.53
2023-07-03T06:56:36.760Z,100610.50
2023-07-03T06:59:04.105Z,100617.16
2023-07-03T07:01:31.462Z,100606.28
2023-07-03T07:03:58.919Z,100610.03
2023-07-03T07:06:29.234Z,100610.03
2023-07-03T07:08:56.692Z,100608.53
2023-07-03T07:11:30.640Z,100612.09
2023-07-03T07:14:00.015Z,100616.50
2023-07-03T07:16:35.572Z,100617.50
2023-07-03T07:19:06.270Z,100609.38
2023-07-03T07:21:36.240Z,100610.03
2023-07-03T07:24:14.491Z,100612.56
2023-07-03T07:26:42.191Z,100611.72
2023-07-03T07:29:09.677Z,100607.13
2023-07-03T07:31:42.224Z,100615.09
2023-07-03T07:34:11.708Z,100614.25
2023-07-03T07:36:40.095Z,100614.91
2023-07-03T07:39:08.438Z,100612.19
2023-07-03T07:41:35.990Z,100616.78
2023-07-03T07:44:03.464Z,100626.44
2023-07-03T07:46:32.833Z,100623.72
2023-07-03T07:49:01.512Z,100626.03
2023-07-03T07:51:29.648Z,100640.09
2023-07-03T07:53:58.117Z,100634.50
2023-07-03T07:56:27.669Z,100629.91
2023-07-03T07:58:55.344Z,100630.06
2023-07-03T08:01:22.880Z,100629.22
2023-07-03T08:03:50.270Z,100628.59
2023-07-03T08:06:17.746Z,100629.78
2023-07-03T08:08:45.623Z,100636.06
2023-07-03T08:11:13.169Z,100627.91
2023-07-03T08:13:41.551Z,100636.91
2023-07-03T08:16:11.304Z,100635.91
2023-07-03T08:18:39.024Z,100637.75
2023-07-03T08:21:06.563Z,100633.19
2023-07-03T08:23:34.797Z,100632.97
2023-07-03T08:26:02.728Z,100635.69
2023-07-03T08:28:30.832Z,100638.63
2023-07-03T08:31:02.052Z,100643.19
2023-07-03T08:33:29.545Z,100637.56
2023-07-03T08:38:27.210Z,100643.66
2023-07-03T08:41:02.066Z,100634.50
2023-07-03T08:43:35.371Z,100641.59
2023-07-03T08:46:06.299Z,100640.78
2023-07-03T08:48:36.769Z,100628.03
2023-07-03T08:51:08.225Z,100632.63
2023-07-03T08:53:39.574Z,100634.09
2023-07-03T08:56:16.787Z,100628.66
2023-07-03T08:58:47.738Z,100633.13
2023-07-03T09:01:47.134Z,100632.09
2023-07-03T09:04:39.182Z,100640.88
2023-07-03T09:07:10.188Z,100638.16
2023-07-03T09:10:09.064Z,100639.00
2023-07-03T09:12:42.760Z,100639.66
2023-07-03T09:15:24.422Z,100643.22
2023-07-03T09:17:53.461Z,100642.19
2023-07-03T09:20:23.687Z,100641.19
2023-07-03T09:23:05.242Z,100651.00
2023-07-03T09:26:03.111Z,100650.16
2023-07-03T09:28:37.073Z,100644.72
2023-07-03T09:31:05.117Z,100649.13
2023-07-03T09:33:32.891Z,100649.97
2023-07-03T09:36:19.427Z,100649.75
2023-07-03T09:38:48.135Z,100649.75
2023-07-03T09:41:29.199Z,100650.63
2023-07-03T09:43:57.247Z,100649.41
2023-07-03T09:46:25.896Z,100644.81
2023-07-03T09:48:54.924Z,100650.22
2023-07-03T09:51:31.365Z,100646.50
2023-07-03T09:54:05.781Z,100642.09
2023-07-03T09:56:34.829Z,100650.06
2023-07-03T09:59:04.867Z,100646.50
2023-07-03T10:06:59.848Z,100647.16
2023-07-03T10:12:10.641Z,100639.00
2023-07-03T10:15:08.063Z,100648.00
2023-07-03T10:17:43.341Z,100651.53
2023-07-03T10:20:28.862Z,100649.66
2023-07-03T10:22:59.877Z,100649.50
2023-07-03T10:25:35.530Z,100656.63
2023-07-03T10:28:09.622Z,100646.56
2023-07-03T10:30:40.744Z,100645.75
2023-07-03T10:33:15.528Z,100645.75
2023-07-03T10:35:44.426Z,100651.19
2023-07-03T10:38:17.822Z,100644.69
2023-07-03T10:40:56.424Z,100650.13
2023-07-03T10:43:27.338Z,100648.25
2023-07-03T10:45:55.637Z,100651.84
2023-07-03T10:48:27.636Z,100650.81
2023-07-03T10:51:16.900Z,100647.25
2023-07-03T10:53:53.487Z,100651.44
2023-07-03T10:56:49.123Z,100647.03
2023-07-03T10:59:28.212Z,100648.72
2023-07-03T11:02:36.628Z,100643.28
2023-07-03T11:05:15.394Z,100637.00
2023-07-03T11:07:51.963Z,100632.25
2023-07-03T11:10:25.273Z,100631.41
2023-07-03T11:13:17.671Z,100638.53
2023-07-03T11:16:04.090Z,100633.09
2023-07-03T11:24:30.266Z,100631.56
2023-07-03T11:29:49.467Z,100634.47
2023-07-03T11:32:17.712Z,100630.88
2023-07-03T11:40:38.914Z,100625.84
2023-07-03T11:45:57.903Z,100623.13
2023-07-03T11:48:34.221Z,100624.63
2023-07-03T11:51:12.309Z,100619.19
2023-07-03T11:53:41.137Z,100617.97
2023-07-03T11:56:15.420Z,100607.56
2023-07-03T11:58:44.695Z,100608.28
2023-07-03T12:01:32.639Z,100607.69
2023-07-03T12:04:03.705Z,100606.84
2023-07-03T12:06:40.161Z,100601.41
2023-07-03T12:09:22.456Z,100601.78
2023-07-03T12:12:01.803Z,100599.28
2023-07-03T12:14:41.375Z,100595.03
2023-07-03T12:17:35.490Z,100590.66
2023-07-03T12:20:09.414Z,100598.16
2023-07-03T12:22:46.293Z,100597.50
2023-07-03T12:25:26.636Z,100587.47
2023-07-03T12:27:55.620Z,100586.63
2023-07-03T12:30:31.483Z,100582.41
2023-07-03T12:33:00.441Z,100583.44
2023-07-03T12:35:31.877Z,100580.53
2023-07-03T12:38:10.937Z,100575.09
2023-07-03T12:40:46.188Z,100573.25
2023-07-03T12:43:19.109Z,100564.88
2023-07-03T12:45:54.752Z,100559.53
2023-07-03T12:48:23.746Z,100561.72
2023-07-03T12:50:57.592Z,100558.00
2023-07-03T12:53:33.755Z,100560.91
2023-07-03T12:56:06.038Z,100560.91
2023-07-03T12:58:34.415Z,100560.22
2023-07-03T13:01:07.341Z,100550.38
2023-07-03T13:03:44.736Z,100552.59
2023-07-03T13:06:31.540Z,100560.63
2023-07-03T13:08:59.484Z,100560.88
2023-07-03T13:11:45.055Z,100553.34
2023-07-03T13:14:13.057Z,100562.31
2023-07-03T13:16:46.441Z,100556.59
2023-07-03T13:19:29.167Z,100564.50
2023-07-03T13:21:57.402Z,100563.69
2023-07-03T13:24:26.669Z,100554.47
2023-07-03T13:26:55.275Z,100555.69
2023-07-03T13:29:29.700Z,100555.16
2023-07-03T13:32:18.350Z,100549.69
2023-07-03T13:35:12.367Z,100549.59
2023-07-03T13:37:39.800Z,100552.53
2023-07-03T13:40:07.861Z,100548.75
2023-07-03T13:42:36.076Z,100537.97
2023-07-03T13:45:04.233Z,100535.19
2023-07-03T13:47:31.633Z,100543.28
2023-07-03T13:49:58.929Z,100542.22
2023-07-03T13:52:27.679Z,100552.47
2023-07-03T13:54:55.014Z,100534.19
2023-07-03T13:57:22.328Z,100537.31
2023-07-03T13:59:49.688Z,100540.41
2023-07-03T14:02:17.055Z,100546.25
2023-07-03T14:04:44.780Z,100549.00
2023-07-03T14:07:12.304Z,100546.25
2023-07-03T14:09:39.597Z,100535.38
2023-07-03T14:12:07.269Z,100529.94
2023-07-03T14:14:34.599Z,100526.16
2023-07-03T14:17:01.917Z,100517.81
2023-07-03T14:19:29.360Z,100519.28
2023-07-03T14:21:56.768Z,100521.81
2023-07-03T14:24:24.066Z,100518.91
2023-07-03T14:26:51.504Z,100514.31
2023-07-03T14:29:19.442Z,100511.38
2023-07-03T14:31:48.079Z,100513.91
2023-07-03T14:34:17.471Z,100515.78
2023-07-03T14:36:44.824Z,100510.16
2023-07-03T14:39:12.245Z,100514.56
2023-07-03T14:41:39.662Z,100502.16
2023-07-03T14:44:07.037Z,100508.66
2023-07-03T14:46:34.426Z,100500.50
2023-07-03T14:49:01.834Z,100506.78
2023-07-03T14:51:29.141Z,100513.72
2023-07-03T14:53:56.497Z,100505.75
2023-07-03T14:56:23.805Z,100504.50
2023-07-03T14:58:51.280Z,100508.06
2023-07-03T15:01:18.672Z,100514.38
2023-07-03T15:03:46.166Z,100507.88
2023-07-03T15:06:13.634Z,100494.28
2023-07-03T15:08:41.156Z,100489.66
2023-07-03T15:11:15.196Z,100485.91
2023-07-03T15:13:43.260Z,100478.56
2023-07-03T15:16:15.875Z,100464.13
2023-07-03T15:18:43.409Z,100451.56
2023-07-03T15:21:10.837Z,100450.72
2023-07-03T15:23:40.797Z,100449.88
2023-07-03T15:26:09.093Z,100449.88
2023-07-03T15:28:36.476Z,100445.28
2023-07-03T15:31:04.471Z,100430.63
2023-07-03T15:33:31.960Z,100428.13
2023-07-03T15:36:01.332Z,100421.63
2023-07-03T15:38:28.682Z,100422.47
2023-07-03T15:40:57.919Z,100423.50
2023-07-03T15:43:26.364Z,100423.50
2023-07-03T15:46:02.652Z,100428.97
2023-07-03T15:48:32.972Z,100430.00
2023-07-03T15:51:01.305Z,100434.41
2023-07-03T15:53:30.399Z,100428.97
2023-07-03T15:56:05.702Z,100421.63
2023-07-03T15:58:42.018Z,100408.84
2023-07-03T16:01:15.663Z,100409.91
2023-07-03T16:03:43.228Z,100409.91
2023-07-03T16:06:15.129Z,100426.22
2023-07-03T16:08:43.528Z,100423.50
2023-07-03T16:11:17.288Z,100432.50
2023-07-03T16:13:45.671Z,100436.06
2023-07-03T16:16:15.437Z,100458.06
2023-07-03T16:18:58.888Z,100454.50
2023-07-03T16:21:31.700Z,100458.25
2023-07-03T16:24:00.033Z,100434.78
2023-07-03T16:26:28.467Z,100444.84
2023-07-03T16:28:56.229Z,100471.84
2023-07-03T16:31:28.690Z,100514.56
2023-07-03T16:33:58.347Z,100568.13
2023-07-03T16:36:28.337Z,100589.72
2023-07-03T16:39:00.434Z,100616.91
2023-07-03T16:41:29.829Z,100632.41
2023-07-03T16:43:58.760Z,100673.38
2023-07-03T16:46:28.309Z,100724.66
2023-07-03T16:48:57.357Z,100772.50
2023-07-03T16:51:26.223Z,100814.19
2023-07-03T16:53:53.830Z,100811.72
2023-07-03T16:56:33.476Z,100787.13
2023-07-03T16:59:01.008Z,100733.66
2023-07-03T17:01:30.036Z,100720.34
2023-07-03T17:03:57.580Z,100694.50
2023-07-03T17:06:36.123Z,100705.44
2023-07-03T17:09:04.864Z,100758.22
2023-07-03T17:11:32.453Z,100754.94
2023-07-03T17:14:00.892Z,100713.69
2023-07-03T17:16:29.242Z,100687.09
2023-07-03T17:18:56.650Z,100670.47
2023-07-03T17:21:23.973Z,100674.44
2023-07-03T17:23:58.469Z,100700.75
2023-07-03T17:26:26.255Z,100722.13
2023-07-03T17:28:53.618Z,100717.03
2023-07-03T17:31:24.899Z,100689.16
2023-07-03T17:33:53.205Z,100655.97
2023-07-03T17:36:21.452Z,100642.50
2023-07-03T17:38:48.888Z,100631.75
2023-07-03T17:41:19.580Z,100631.91
2023-07-03T17:43:47.575Z,100647.16
2023-07-03T17:46:16.773Z,100651.56
2023-07-03T17:48:44.959Z,100650.63
2023-07-03T17:51:13.709Z,100646.81
2023-07-03T17:53:45.479Z,100629.13
2023-07-03T17:56:12.960Z,100624.88
2023-07-03T17:58:44.702Z,100619.28
2023-07-03T18:01:12.867Z,100624.75
2023-07-03T18:03:40.745Z,100626.81
2023-07-03T18:06:09.106Z,100619.91
2023-07-03T18:08:36.954Z,100615.25
2023-07-03T18:11:04.536Z,100623.22
2023-07-03T18:13:32.130Z,100634.78
2023-07-03T18:15:59.943Z,100637.00
2023-07-03T18:18:27.644Z,100651.72
2023-07-03T18:20:55.139Z,100638.50
2023-07-03T18:23:22.815Z,100643.78
2023-07-03T18:25:50.579Z,100645.63
2023-07-03T18:28:18.872Z,100648.31
2023-07-03T18:30:46.546Z,100645.25
2023-07-03T18:33:13.852Z,100641.19
2023-07-03T18:35:41.350Z,100647.28
2023-07-03T18:38:08.888Z,100652.50
2023-07-03T18:40:36.575Z,100663.53
2023-07-03T18:43:03.927Z,100674.03
2023-07-03T18:45:31.231Z,100677.56
2023-07-03T18:47:58.638Z,100678.91
2023-07-03T18:50:26.507Z,100682.97
2023-07-03T18:52:54.019Z,100682.41
2023-07-03T18:55:22.621Z,100679.69
2023-07-03T18:57:50.421Z,100680.69
2023-07-03T19:00:17.918Z,100676.91
2023-07-03T19:02:46.545Z,100669.56
2023-07-03T19:05:14.809Z,100665.81
2023-07-03T19:07:42.297Z,100663.41
2023-07-03T19:12:41.087Z,100660.34
2023-07-03T19:15:09.164Z,100657.47
2023-07-03T19:17:36.537Z,100662.69
2023-07-03T19:20:04.275Z,100661.00
2023-07-03T19:22:31.793Z,100661.19
2023-07-03T19:24:59.716Z,100663.06
2023-07-03T19:27:27.228Z,100673.91
2023-07-03T19:29:55.072Z,100682.75
2023-07-03T19:32:24.838Z,100680.88
2023-07-03T19:34:53.280Z,100684.81
2023-07-03T19:37:20.901Z,100684.13
2023-07-03T19:39:48.217Z,100692.25
2023-07-03T19:42:15.895Z,100688.50
2023-07-03T19:44:43.608Z,100691.06
2023-07-03T19:47:11.004Z,100689.69
2023-07-03T19:49:38.500Z,100691.19
2023-07-03T19:52:06.465Z,100708.13
2023-07-03T19:54:33.938Z,100709.81
2023-07-03T19:57:01.298Z,100692.38
2023-07-03T19:59:29.866Z,100682.69
2023-07-03T20:01:57.807Z,100689.44
2023-07-03T20:04:28.549Z,100697.72
2023-07-03T20:06:56.132Z,100693.63
2023-07-03T20:09:24.274Z,100697.66
2023-07-03T20:11:51.712Z,100702.06
2023-07-03T20:14:20.027Z,100702.56
2023-07-03T20:16:47.634Z,100709.47
2023-07-03T20:19:15.484Z,100702.00
2023-07-03T20:21:43.053Z,100698.25
2023-07-03T20:24:10.811Z,100698.94
2023-07-03T20:26:39.327Z,100699.78
2023-07-03T20:29:06.723Z,100687.06
2023-07-03T20:31:34.119Z,100687.91
2023-07-03T20:34:01.476Z,100694.16
2023-07-03T20:36:30.278Z,100696.03
2023-07-03T20:38:57.938Z,100686.88
2023-07-03T20:41:25.255Z,100691.28
2023-07-03T20:43:52.553Z,100692.13
2023-07-03T20:46:22.739Z,100692.28
2023-07-03T20:48:56.478Z,100704.03
2023-07-03T20:51:27.700Z,100712.16
2023-07-03T20:53:55.244Z,100719.44
2023-07-03T20:56:27.360Z,100722.13
2023-07-03T20:58:56.775Z,100719.28
2023-07-03T21:01:35.830Z,100721.13
2023-07-03T21:04:05.641Z,100726.56
2023-07-03T21:06:37.456Z,100723.84
2023-07-03T21:09:05.948Z,100721.97
2023-07-03T21:11:36.070Z,100723.66
2023-07-03T21:14:05.995Z,100728.44
2023-07-03T21:16:35.323Z,100722.13
2023-07-03T21:19:03.154Z,100734.53
2023-07-03T21:21:32.634Z,100739.09
2023-07-03T21:24:04.284Z,100739.09
2023-07-03T21:26:32.727Z,100740.78
2023-07-03T21:29:00.267Z,100751.63
2023-07-03T21:31:30.581Z,100757.06
2023-07-03T21:33:58.131Z,100754.34
2023-07-03T21:36:28.271Z,100764.19
2023-07-03T21:38:57.437Z,100771.31
2023-07-03T21:41:29.683Z,100776.56
2023-07-03T21:43:59.351Z,100779.25
2023-07-03T21:46:29.009Z,100775.72
2023-07-03T21:48:57.118Z,100785.53
2023-07-03T21:51:27.488Z,100780.47
2023-07-03T21:53:55.067Z,100787.75
2023-07-03T21:56:33.658Z,100785.59
2023-07-03T21:59:04.248Z,100789.50
2023-07-03T22:01:38.463Z,100794.44
2023-07-03T22:04:07.536Z,100794.44
2023-07-03T22:06:34.956Z,100790.03
2023-07-03T22:09:02.283Z,100789.19
2023-07-03T22:11:30.828Z,100784.78
2023-07-03T22:13:58.521Z,100779.69
2023-07-03T22:16:26.300Z,100784.47
2023-07-03T22:18:53.722Z,100788.19
2023-07-03T22:21:21.917Z,100787.53
2023-07-03T22:23:51.209Z,100789.41
2023-07-03T22:26:19.212Z,100785.84
2023-07-03T22:28:46.941Z,100792.78
2023-07-03T22:31:14.523Z,100799.72
2023-07-03T22:33:42.185Z,100805.66
2023-07-03T22:36:11.089Z,100804.44
2023-07-03T22:38:38.553Z,100811.38
2023-07-03T22:41:05.941Z,100821.88
2023-07-03T22:43:33.251Z,100825.25
2023-07-03T22:46:05.238Z,100824.75
2023-07-03T22:48:33.296Z,100838.97
2023-07-03T22:51:02.457Z,100833.19
2023-07-03T22:53:30.309Z,100841.16
2023-07-03T22:55:57.685Z,100841.81
2023-07-03T22:58:25.252Z,100849.59
2023-07-03T23:00:54.436Z,100855.91
2023-07-03T23:03:21.780Z,100850.09
2023-07-03T23:05:51.667Z,100862.66
2023-07-03T23:08:19.254Z,100865.19
2023-07-03T23:10:54.546Z,100865.00
2023-07-03T23:13:23.180Z,100870.25
2023-07-03T23:15:59.943Z,100872.78
2023-07-03T23:18:30.782Z,100875.50
2023-07-03T23:21:03.733Z,100881.66
2023-07-03T23:23:33.556Z,100879.78
2023-07-03T23:26:04.798Z,100885.19
2023-07-03T23:28:34.578Z,100890.63
2023-07-03T23:31:05.551Z,100887.72
2023-07-03T23:33:34.413Z,100894.84
2023-07-03T23:36:06.060Z,100891.28
2023-07-03T23:38:35.578Z,100910.97
2023-07-03T23:41:05.702Z,100920.13
2023-07-03T23:43:33.931Z,100920.81
2023-07-03T23:46:05.637Z,100925.38
2023-07-03T23:48:33.506Z,100925.38
2023-07-03T23:51:04.152Z,100926.22
2023-07-03T23:53:33.966Z,100924.38
2023-07-03T23:56:07.274Z,100925.19
2023-07-03T23:58:36.870Z,100930.63
